Time;durP1;ratioP1;P1;durP2;ratioP2;P2;SDS_P1;SDS_P2;PMS_P1;PMS_P2;Temp;Humidity;BMP_temperature;BMP_pressure;BME280_temperature;BME280_humidity;BME280_pressure;Samples;Min_cycle;Max_cycle;Signal;HPM_P1;HPM_P2
2023/10/20 00:01:46;;;;;;;0.22;0.22;;;;;;;;;;6314654;22;20446;-89
2023/10/20 00:04:16;;;;;;;0.40;0.40;;;;;;;;;;6290882;22;20015;-87
2023/10/20 00:06:42;;;;;;;0.30;0.30;;;;;;;;;;6293410;22;20022;-89
2023/10/20 00:09:08;;;;;;;0.25;0.25;;;;;;;;;;6306502;22;20037;-90
2023/10/20 00:11:47;;;;;;;0.30;0.30;;;;;;;;;;6308226;22;20023;-86
2023/10/20 00:14:23;;;;;;;0.40;0.40;;;;;;;;;;6312133;22;20104;-88
2023/10/20 00:16:49;;;;;;;0.30;0.30;;;;;;;;;;6300252;22;20342;-87
2023/10/20 00:19:23;;;;;;;0.40;0.40;;;;;;;;;;6291450;22;20389;-89
2023/10/20 00:22:01;;;;;;;0.30;0.30;;;;;;;;;;6301673;22;20016;-87
2023/10/20 00:24:41;;;;;;;0.30;0.30;;;;;;;;;;6295885;22;20015;-87
2023/10/20 00:27:28;;;;;;;0.32;0.32;;;;;;;;;;6328042;22;20026;-88
2023/10/20 00:30:29;;;;;;;0.30;0.30;;;;;;;;;;6328731;22;20481;-88
2023/10/20 00:33:07;;;;;;;0.85;0.85;;;;;;;;;;6295501;22;19995;-88
2023/10/20 00:36:11;;;;;;;;;;;;;;;;;;;;;
2023/10/20 00:38:44;;;;;;;0.30;0.30;;;;;;;;;;6294059;22;20004;-88
2023/10/20 00:41:19;;;;;;;0.40;0.40;;;;;;;;;;6306224;22;20015;-88
2023/10/20 00:47:51;;;;;;;0.30;0.30;;;;;;;;;;6256035;22;20025;-87
2023/10/20 00:50:34;;;;;;;0.30;0.30;;;;;;;;;;6324475;22;20059;-87
2023/10/20 00:53:01;;;;;;;0.40;0.40;;;;;;;;;;6299994;22;20012;-86
2023/10/20 00:59:27;;;;;;;0.40;0.40;;;;;;;;;;6221025;22;20144;-87
2023/10/20 01:03:03;;;;;;;0.40;0.40;;;;;;;;;;6211309;22;20020;-87
2023/10/20 01:05:29;;;;;;;0.30;0.30;;;;;;;;;;6180425;23;20021;-87
2023/10/20 01:07:55;;;;;;;1.27;1.17;;;;;;;;;;6191161;22;20419;-87
2023/10/20 01:10:30;;;;;;;0.30;0.30;;;;;;;;;;6299060;22;20019;-88
2023/10/20 01:13:04;;;;;;;0.63;0.63;;;;;;;;;;6308895;22;20075;-87
2023/10/20 01:15:33;;;;;;;0.30;0.30;;;;;;;;;;6336485;22;20003;-88
2023/10/20 01:18:17;;;;;;;0.30;0.30;;;;;;;;;;6324351;22;20015;-87
2023/10/20 01:20:44;;;;;;;0.30;0.30;;;;;;;;;;6292479;22;20015;-88
2023/10/20 01:25:46;;;;;;;0.30;0.30;;;;;;;;;;6273881;22;20024;-87
2023/10/20 01:28:13;;;;;;;0.30;0.30;;;;;;;;;;6208867;23;20027;-86
2023/10/20 01:30:42;;;;;;;0.40;0.40;;;;;;;;;;6233537;23;20084;-87
2023/10/20 01:33:08;;;;;;;0.30;0.30;;;;;;;;;;6209513;23;20095;-88
2023/10/20 01:35:34;;;;;;;0.30;0.30;;;;;;;;;;6207027;23;20324;-87
2023/10/20 01:38:01;;;;;;;0.45;0.45;;;;;;;;;;6207709;23;20447;-87
2023/10/20 01:40:28;;;;;;;0.20;0.20;;;;;;;;;;6207367;23;20023;-89
2023/10/20 01:42:59;;;;;;;0.30;0.30;;;;;;;;;;6212729;23;20011;-86
2023/10/20 01:45:26;;;;;;;0.30;0.30;;;;;;;;;;6242503;23;20027;-87
2023/10/20 01:47:52;;;;;;;0.25;0.25;;;;;;;;;;6234779;23;20023;-87
2023/10/20 01:50:18;;;;;;;0.30;0.30;;;;;;;;;;6217807;23;20020;-87
2023/10/20 01:52:47;;;;;;;0.40;0.40;;;;;;;;;;6234504;23;20016;-87
2023/10/20 01:55:14;;;;;;;0.40;0.40;;;;;;;;;;6215466;23;20000;-88
2023/10/20 01:57:40;;;;;;;0.40;0.40;;;;;;;;;;6205699;23;20054;-87
2023/10/20 02:00:08;;;;;;;0.30;0.30;;;;;;;;;;6205887;23;20020;-87
2023/10/20 02:02:35;;;;;;;0.40;0.40;;;;;;;;;;6208198;23;20020;-87
2023/10/20 02:05:00;;;;;;;0.40;0.40;;;;;;;;;;6208229;23;20146;-86
2023/10/20 02:07:27;;;;;;;0.30;0.30;;;;;;;;;;6235589;23;20023;-87
2023/10/20 02:09:59;;;;;;;0.30;0.30;;;;;;;;;;6222336;23;20027;-88
2023/10/20 02:12:28;;;;;;;0.30;0.30;;;;;;;;;;6240559;23;20048;-89
2023/10/20 02:14:54;;;;;;;0.40;0.40;;;;;;;;;;6208634;23;20016;-87
2023/10/20 02:17:20;;;;;;;0.40;0.40;;;;;;;;;;6234658;23;20012;-87
2023/10/20 02:19:47;;;;;;;0.40;0.40;;;;;;;;;;6205254;23;20019;-87
2023/10/20 02:25:23;;;;;;;0.30;0.30;;;;;;;;;;6278108;22;20070;-88
2023/10/20 02:27:58;;;;;;;0.30;0.30;;;;;;;;;;6208861;23;20020;-87
2023/10/20 02:30:27;;;;;;;0.40;0.40;;;;;;;;;;6230412;23;20051;-89
2023/10/20 02:32:54;;;;;;;0.38;0.38;;;;;;;;;;6213880;23;20066;-87
2023/10/20 02:35:24;;;;;;;0.40;0.40;;;;;;;;;;6243371;23;20016;-88
2023/10/20 02:37:57;;;;;;;0.30;0.30;;;;;;;;;;6243399;23;20066;-87
2023/10/20 02:40:23;;;;;;;0.30;0.30;;;;;;;;;;6238052;23;20012;-87
2023/10/20 02:42:49;;;;;;;0.40;0.40;;;;;;;;;;6204045;23;20068;-87
2023/10/20 02:45:15;;;;;;;0.30;0.30;;;;;;;;;;6203991;23;20018;-87
2023/10/20 02:47:44;;;;;;;0.40;0.40;;;;;;;;;;6203794;23;20096;-88
2023/10/20 02:50:10;;;;;;;0.30;0.30;;;;;;;;;;6233306;23;20024;-87
2023/10/20 02:52:43;;;;;;;0.30;0.30;;;;;;;;;;6220911;23;20027;-87
2023/10/20 02:55:50;;;;;;;0.30;0.30;;;;;;;;;;6152002;23;20014;-87
2023/10/20 02:58:18;;;;;;;0.30;0.30;;;;;;;;;;6244739;23;20007;-87
2023/10/20 03:00:50;;;;;;;0.38;0.38;;;;;;;;;;6248072;23;20020;-87
2023/10/20 03:03:17;;;;;;;0.30;0.30;;;;;;;;;;6237287;23;20020;-87
2023/10/20 03:05:45;;;;;;;0.30;0.30;;;;;;;;;;6204374;23;20066;-87
2023/10/20 03:08:11;;;;;;;0.30;0.30;;;;;;;;;;6201876;23;20078;-87
2023/10/20 03:10:38;;;;;;;0.40;0.40;;;;;;;;;;6204957;23;20020;-87
2023/10/20 03:13:04;;;;;;;0.40;0.40;;;;;;;;;;6228962;23;20023;-86
2023/10/20 03:15:33;;;;;;;0.40;0.40;;;;;;;;;;6206143;23;20016;-88
2023/10/20 03:18:00;;;;;;;0.30;0.30;;;;;;;;;;6204814;23;20043;-89
2023/10/20 03:20:30;;;;;;;0.30;0.30;;;;;;;;;;6231364;23;20022;-87
2023/10/20 03:22:56;;;;;;;0.30;0.30;;;;;;;;;;6211943;23;20020;-89
2023/10/20 03:25:22;;;;;;;0.40;0.40;;;;;;;;;;6226980;22;20051;-88
2023/10/20 03:27:48;;;;;;;0.50;0.50;;;;;;;;;;6285255;22;20016;-86
2023/10/20 03:30:18;;;;;;;0.30;0.30;;;;;;;;;;6285030;22;20050;-89
2023/10/20 03:32:50;;;;;;;0.30;0.30;;;;;;;;;;6273694;22;20339;-86
2023/10/20 03:35:36;;;;;;;0.30;0.30;;;;;;;;;;6302189;22;20022;-87
2023/10/20 03:38:11;;;;;;;0.40;0.40;;;;;;;;;;6288956;22;20042;-87
2023/10/20 03:40:42;;;;;;;0.30;0.30;;;;;;;;;;6259471;22;20094;-88
2023/10/20 03:43:08;;;;;;;0.30;0.30;;;;;;;;;;6260630;22;20016;-87
2023/10/20 03:45:51;;;;;;;0.30;0.30;;;;;;;;;;6260392;22;20063;-88
2023/10/20 03:48:29;;;;;;;0.40;0.40;;;;;;;;;;6270792;22;20029;-87
2023/10/20 03:50:59;;;;;;;0.30;0.30;;;;;;;;;;6275806;22;20023;-87
2023/10/20 03:53:32;;;;;;;0.30;0.30;;;;;;;;;;6232730;22;20022;-88
2023/10/20 03:56:00;;;;;;;0.30;0.30;;;;;;;;;;6259076;22;20015;-87
2023/10/20 03:58:27;;;;;;;0.30;0.30;;;;;;;;;;6259742;22;20465;-87
2023/10/20 04:00:54;;;;;;;0.40;0.40;;;;;;;;;;6257173;22;20015;-87
2023/10/20 04:03:20;;;;;;;0.30;0.30;;;;;;;;;;6261389;22;20050;-88
2023/10/20 04:05:48;;;;;;;0.40;0.40;;;;;;;;;;6258807;22;20160;-87
2023/10/20 04:08:31;;;;;;;0.30;0.30;;;;;;;;;;6260051;22;20352;-88
2023/10/20 04:11:12;;;;;;;0.30;0.30;;;;;;;;;;6300534;22;20023;-87
2023/10/20 04:13:40;;;;;;;0.30;0.30;;;;;;;;;;6296951;22;19999;-87
2023/10/20 04:16:12;;;;;;;0.40;0.40;;;;;;;;;;6267607;22;20059;-87
2023/10/20 04:18:42;;;;;;;0.40;0.40;;;;;;;;;;6286243;22;20020;-85
2023/10/20 04:21:40;;;;;;;0.40;0.40;;;;;;;;;;6261627;22;20077;-88
2023/10/20 04:24:09;;;;;;;0.35;0.35;;;;;;;;;;6268967;22;20027;-85
2023/10/20 04:26:36;;;;;;;0.43;0.43;;;;;;;;;;6262234;22;20019;-87
2023/10/20 04:53:23;;;;;;;0.40;0.40;;;;;;;;;;6295493;22;20019;-92
2023/10/20 05:03:52;;;;;;;0.40;0.40;;;;;;;;;;6303007;22;20004;-92
2023/10/20 05:06:45;;;;;;;0.30;0.30;;;;;;;;;;6276299;22;20047;-90
2023/10/20 05:09:43;;;;;;;0.30;0.30;;;;;;;;;;6297348;22;20023;-93
2023/10/20 05:12:09;;;;;;;0.50;0.50;;;;;;;;;;6245688;22;20045;-90
2023/10/20 05:19:47;;;;;;;0.30;0.30;;;;;;;;;;6267502;22;20032;-91
2023/10/20 05:27:25;;;;;;;0.40;0.40;;;;;;;;;;6243721;22;1061964;-91
2023/10/20 05:32:40;;;;;;;0.40;0.40;;;;;;;;;;6317937;22;20106;-91
2023/10/20 05:35:09;;;;;;;0.40;0.40;;;;;;;;;;6281600;22;20022;-91
2023/10/20 05:37:35;;;;;;;0.30;0.30;;;;;;;;;;6275615;22;20006;-92
2023/10/20 05:40:03;;;;;;;0.40;0.40;;;;;;;;;;6275324;22;20023;-89
2023/10/20 05:42:29;;;;;;;0.30;0.30;;;;;;;;;;6276693;22;20003;-92
2023/10/20 05:45:09;;;;;;;0.65;0.65;;;;;;;;;;6303938;22;20393;-91
2023/10/20 05:47:35;;;;;;;0.70;0.70;;;;;;;;;;6275509;22;20021;-90
2023/10/20 05:50:04;;;;;;;0.30;0.30;;;;;;;;;;6279971;22;20031;-91
2023/10/20 05:52:39;;;;;;;0.40;0.40;;;;;;;;;;6277371;22;20019;-91
2023/10/20 05:55:06;;;;;;;0.30;0.30;;;;;;;;;;6277646;22;20054;-91
2023/10/20 05:57:32;;;;;;;0.40;0.40;;;;;;;;;;6300977;22;20022;-91
2023/10/20 06:00:03;;;;;;;0.40;0.40;;;;;;;;;;6275918;22;20019;-91
2023/10/20 06:02:32;;;;;;;0.40;0.40;;;;;;;;;;6306011;22;20030;-92
2023/10/20 06:04:58;;;;;;;0.30;0.30;;;;;;;;;;6278997;22;20015;-89
2023/10/20 06:10:00;;;;;;;0.40;0.40;;;;;;;;;;6328512;22;20315;-91
2023/10/20 06:12:26;;;;;;;0.40;0.40;;;;;;;;;;6281615;22;20027;-92
2023/10/20 06:14:52;;;;;;;0.40;0.40;;;;;;;;;;6283165;22;20047;-91
2023/10/20 06:17:19;;;;;;;0.30;0.30;;;;;;;;;;6276794;22;20026;-91
2023/10/20 06:19:48;;;;;;;0.40;0.40;;;;;;;;;;6279496;22;20430;-93
2023/10/20 06:22:15;;;;;;;0.30;0.30;;;;;;;;;;6280171;22;20021;-90
2023/10/20 06:24:41;;;;;;;0.40;0.40;;;;;;;;;;6279250;22;20011;-90
2023/10/20 06:27:07;;;;;;;0.40;0.40;;;;;;;;;;6282742;22;20023;-91
2023/10/20 06:29:46;;;;;;;0.30;0.30;;;;;;;;;;6279444;22;20026;-91
2023/10/20 06:32:32;;;;;;;0.30;0.30;;;;;;;;;;6257495;22;20014;-90
2023/10/20 06:35:00;;;;;;;0.30;0.30;;;;;;;;;;6260339;22;20062;-93
2023/10/20 06:48:09;;;;;;;0.40;0.40;;;;;;;;;;6295935;22;20055;-92
2023/10/20 06:50:48;;;;;;;0.40;0.40;;;;;;;;;;6257785;22;20258;-90
2023/10/20 07:01:08;;;;;;;0.40;0.40;;;;;;;;;;6282508;22;20243;-90
2023/10/20 07:16:34;;;;;;;0.40;0.40;;;;;;;;;;6326979;22;20019;-92
2023/10/20 07:19:04;;;;;;;0.40;0.40;;;;;;;;;;6279705;22;20034;-92
2023/10/20 07:21:30;;;;;;;0.30;0.30;;;;;;;;;;6279121;22;20019;-92
2023/10/20 07:23:56;;;;;;;0.40;0.40;;;;;;;;;;6279107;22;20067;-91
2023/10/20 07:26:26;;;;;;;0.30;0.30;;;;;;;;;;6264033;22;20046;-94
2023/10/20 07:28:53;;;;;;;0.40;0.40;;;;;;;;;;6228421;22;20034;-92
2023/10/20 07:31:21;;;;;;;0.40;0.40;;;;;;;;;;6277616;22;20015;-92
2023/10/20 07:33:49;;;;;;;0.40;0.40;;;;;;;;;;6277916;22;20022;-92
2023/10/20 07:36:15;;;;;;;0.50;0.50;;;;;;;;;;6278677;22;20039;-91
2023/10/20 07:38:42;;;;;;;0.40;0.40;;;;;;;;;;6277899;22;20038;-91
2023/10/20 07:41:10;;;;;;;0.40;0.40;;;;;;;;;;6278006;22;20041;-91
2023/10/20 07:43:37;;;;;;;0.40;0.40;;;;;;;;;;6278260;22;20019;-92
2023/10/20 07:46:03;;;;;;;0.40;0.40;;;;;;;;;;6279189;22;20019;-91
2023/10/20 07:48:31;;;;;;;0.40;0.40;;;;;;;;;;6278819;22;20023;-93
2023/10/20 07:51:01;;;;;;;0.30;0.30;;;;;;;;;;6279655;22;20041;-91
2023/10/20 07:53:29;;;;;;;0.40;0.40;;;;;;;;;;6278763;22;20084;-92
2023/10/20 07:58:33;;;;;;;0.30;0.30;;;;;;;;;;6310918;22;20019;-92
2023/10/20 08:01:00;;;;;;;0.40;0.40;;;;;;;;;;6278492;22;20041;-91
2023/10/20 08:03:26;;;;;;;0.47;0.47;;;;;;;;;;6306125;22;20007;-95
2023/10/20 08:05:52;;;;;;;0.40;0.40;;;;;;;;;;6279203;22;20019;-91
2023/10/20 08:10:54;;;;;;;0.40;0.40;;;;;;;;;;6288079;22;20039;-91
2023/10/20 08:13:20;;;;;;;0.40;0.40;;;;;;;;;;6279416;22;20075;-90
2023/10/20 08:15:47;;;;;;;0.30;0.30;;;;;;;;;;6279840;22;20019;-92
2023/10/20 08:18:13;;;;;;;0.40;0.40;;;;;;;;;;6278460;22;20010;-94
2023/10/20 08:20:39;;;;;;;0.40;0.40;;;;;;;;;;6279554;22;20016;-91
2023/10/20 08:23:06;;;;;;;0.40;0.40;;;;;;;;;;6279103;22;20038;-92
2023/10/20 08:28:08;;;;;;;0.40;0.40;;;;;;;;;;6299163;22;20397;-92
2023/10/20 08:30:34;;;;;;;0.40;0.40;;;;;;;;;;6246166;22;20027;-92
2023/10/20 08:33:01;;;;;;;0.40;0.40;;;;;;;;;;6246158;22;20011;-93
2023/10/20 08:35:27;;;;;;;0.40;0.40;;;;;;;;;;6271354;22;20544;-90
2023/10/20 08:37:57;;;;;;;0.30;0.30;;;;;;;;;;6247299;22;20042;-91
2023/10/20 08:40:48;;;;;;;0.40;0.40;;;;;;;;;;6274721;22;20011;-94
2023/10/20 08:43:31;;;;;;;0.40;0.40;;;;;;;;;;6298579;22;20081;-92
2023/10/20 08:45:57;;;;;;;0.40;0.40;;;;;;;;;;6260313;22;20016;-93
2023/10/20 08:48:23;;;;;;;0.40;0.40;;;;;;;;;;6272985;22;20058;-91
2023/10/20 08:58:47;;;;;;;0.30;0.30;;;;;;;;;;6331324;22;20130;-93
2023/10/20 09:03:50;;;;;;;0.40;0.40;;;;;;;;;;6330992;22;20026;-92
2023/10/20 09:06:17;;;;;;;0.45;0.45;;;;;;;;;;6279684;22;20023;-92
2023/10/20 09:08:50;;;;;;;0.40;0.40;;;;;;;;;;6277860;22;20015;-93
2023/10/20 09:14:35;;;;;;;0.30;0.30;;;;;;;;;;6334989;22;20003;-93
2023/10/20 09:16:47;;;;;;;0.30;0.30;;;;;;;;;;6288098;22;20056;-90
2023/10/20 09:19:13;;;;;;;0.40;0.40;;;;;;;;;;6255493;22;20026;-91
2023/10/20 09:24:17;;;;;;;0.38;0.38;;;;;;;;;;6270148;22;20020;-93
2023/10/20 09:26:46;;;;;;;0.40;0.40;;;;;;;;;;6279693;22;20019;-93
2023/10/20 09:29:13;;;;;;;0.38;0.38;;;;;;;;;;6278738;22;20458;-93
2023/10/20 09:31:39;;;;;;;0.40;0.40;;;;;;;;;;6278043;22;20019;-92
2023/10/20 09:34:06;;;;;;;0.40;0.40;;;;;;;;;;6303830;22;20015;-91
2023/10/20 09:36:33;;;;;;;0.40;0.40;;;;;;;;;;6279543;22;20019;-92
2023/10/20 09:39:03;;;;;;;0.40;0.40;;;;;;;;;;6280859;22;20022;-94
2023/10/20 09:41:53;;;;;;;0.40;0.40;;;;;;;;;;6283228;22;19999;-92
2023/10/20 09:52:05;;;;;;;0.40;0.40;;;;;;;;;;6300826;22;20035;-91
2023/10/20 09:59:43;;;;;;;0.40;0.40;;;;;;;;;;6300468;22;20042;-92
2023/10/20 10:07:28;;;;;;;0.40;0.40;;;;;;;;;;6324533;22;20034;-92
2023/10/20 10:09:55;;;;;;;0.40;0.40;;;;;;;;;;6304897;22;20049;-91
2023/10/20 10:15:07;;;;;;;0.40;0.40;;;;;;;;;;6332029;22;20019;-92
2023/10/20 10:17:44;;;;;;;0.45;0.45;;;;;;;;;;6279963;22;20019;-94
2023/10/20 10:20:34;;;;;;;0.40;0.40;;;;;;;;;;6279778;22;20026;-93
2023/10/20 10:23:27;;;;;;;0.40;0.40;;;;;;;;;;6290662;22;20028;-91
2023/10/20 10:25:56;;;;;;;0.35;0.35;;;;;;;;;;6262910;22;20030;-93
2023/10/20 10:28:22;;;;;;;0.47;0.47;;;;;;;;;;6274046;22;20023;-92
2023/10/20 10:31:07;;;;;;;0.40;0.40;;;;;;;;;;6303759;22;20342;-92
2023/10/20 10:38:45;;;;;;;0.40;0.40;;;;;;;;;;6320684;22;20026;-91
2023/10/20 10:46:33;;;;;;;0.40;0.40;;;;;;;;;;6321945;22;20023;-94
2023/10/20 10:51:42;;;;;;;0.40;0.40;;;;;;;;;;6332378;22;20053;-92
2023/10/20 11:02:05;;;;;;;0.40;0.40;;;;;;;;;;6297292;22;20019;-91
2023/10/20 11:04:32;;;;;;;0.30;0.30;;;;;;;;;;6253052;22;20019;-93
2023/10/20 11:09:35;;;;;;;0.40;0.40;;;;;;;;;;6289898;22;20031;-93
2023/10/20 11:12:04;;;;;;;0.40;0.40;;;;;;;;;;6279530;22;20063;-94
2023/10/20 11:14:31;;;;;;;0.45;0.45;;;;;;;;;;6279583;22;20067;-92
2023/10/20 11:16:57;;;;;;;0.40;0.40;;;;;;;;;;6279846;22;20081;-93
2023/10/20 11:19:23;;;;;;;0.40;0.40;;;;;;;;;;6279246;22;20067;-91
2023/10/20 11:24:25;;;;;;;0.40;0.40;;;;;;;;;;6322519;22;20079;-92
2023/10/20 11:26:58;;;;;;;0.47;0.47;;;;;;;;;;6280946;22;20016;-91
2023/10/20 11:32:05;;;;;;;0.40;0.40;;;;;;;;;;6275648;22;20011;-93
2023/10/20 11:34:31;;;;;;;0.30;0.30;;;;;;;;;;6255095;22;20053;-94
2023/10/20 11:36:59;;;;;;;0.30;0.30;;;;;;;;;;6268101;22;20057;-94
2023/10/20 11:39:29;;;;;;;0.32;0.32;;;;;;;;;;6306238;22;20042;-93
2023/10/20 11:41:55;;;;;;;0.40;0.40;;;;;;;;;;6305580;22;20021;-92
2023/10/20 11:44:25;;;;;;;0.40;0.40;;;;;;;;;;6305595;22;20058;-95
2023/10/20 11:46:52;;;;;;;0.30;0.30;;;;;;;;;;6305172;22;20084;-91
2023/10/20 11:49:19;;;;;;;0.40;0.40;;;;;;;;;;6305094;22;20094;-92
2023/10/20 11:51:45;;;;;;;0.40;0.40;;;;;;;;;;6305419;22;20023;-92
2023/10/20 11:59:23;;;;;;;0.40;0.40;;;;;;;;;;6287393;22;20012;-92
2023/10/20 12:14:50;;;;;;;0.40;0.40;;;;;;;;;;6301186;22;20047;-95
2023/10/20 12:17:16;;;;;;;0.40;0.40;;;;;;;;;;6272040;22;20264;-92
2023/10/20 12:19:45;;;;;;;0.50;0.50;;;;;;;;;;6272764;22;20004;-91
2023/10/20 12:22:11;;;;;;;0.60;0.60;;;;;;;;;;6274054;22;20058;-91
2023/10/20 12:27:16;;;;;;;0.40;0.40;;;;;;;;;;6295816;22;20067;-88
2023/10/20 12:34:53;;;;;;;0.30;0.30;;;;;;;;;;6314030;22;20044;-94
2023/10/20 12:42:32;;;;;;;0.40;0.40;;;;;;;;;;6303618;22;20079;-94
2023/10/20 12:45:04;;;;;;;0.30;0.30;;;;;;;;;;6281528;22;20019;-93
2023/10/20 12:57:57;;;;;;;0.45;0.45;;;;;;;;;;6329241;22;20078;-93
2023/10/20 13:03:10;;;;;;;0.30;0.30;;;;;;;;;;6318191;22;20010;-91
2023/10/20 13:05:40;;;;;;;0.43;0.43;;;;;;;;;;6281209;22;20020;-95
2023/10/20 13:10:47;;;;;;;0.40;0.40;;;;;;;;;;6289705;22;20027;-93
2023/10/20 13:18:28;;;;;;;0.50;0.50;;;;;;;;;;6326901;22;20014;-95
2023/10/20 13:20:54;;;;;;;0.40;0.40;;;;;;;;;;6281847;22;20003;-91
2023/10/20 13:28:34;;;;;;;0.40;0.40;;;;;;;;;;6323605;22;20019;-92
2023/10/20 13:50:12;;;;;;;0.30;0.30;;;;;;;;;;6320432;22;20053;-94
2023/10/20 13:52:39;;;;;;;0.35;0.35;;;;;;;;;;6280017;22;20087;-94
2023/10/20 13:55:06;;;;;;;0.40;0.40;;;;;;;;;;6280539;22;20015;-89
2023/10/20 14:00:08;;;;;;;0.30;0.30;;;;;;;;;;6328326;22;20027;-91
2023/10/20 14:07:46;;;;;;;0.40;0.40;;;;;;;;;;6292128;22;20023;-95
2023/10/20 14:10:12;;;;;;;0.40;0.40;;;;;;;;;;6279192;22;20057;-93
2023/10/20 14:17:50;;;;;;;0.40;0.40;;;;;;;;;;6294453;22;20003;-94
2023/10/20 14:20:16;;;;;;;0.40;0.40;;;;;;;;;;6255386;22;20019;-93
2023/10/20 14:27:54;;;;;;;0.30;0.30;;;;;;;;;;6303438;22;20004;-94
2023/10/20 14:32:56;;;;;;;0.40;0.40;;;;;;;;;;6291502;22;20004;-94
2023/10/20 14:37:58;;;;;;;0.40;0.40;;;;;;;;;;6303002;22;19999;-92
2023/10/20 14:45:37;;;;;;;0.35;0.35;;;;;;;;;;6332470;22;20438;-91
2023/10/20 14:48:05;;;;;;;0.40;0.40;;;;;;;;;;6279765;22;20015;-91
2023/10/20 14:50:35;;;;;;;0.40;0.40;;;;;;;;;;6280154;22;20019;-93
2023/10/20 14:53:03;;;;;;;0.40;0.40;;;;;;;;;;6306015;22;20015;-93
2023/10/20 14:58:05;;;;;;;0.40;0.40;;;;;;;;;;6238811;22;20023;-94
2023/10/20 15:00:31;;;;;;;0.40;0.40;;;;;;;;;;6282939;22;20031;-95
2023/10/20 15:02:58;;;;;;;0.40;0.40;;;;;;;;;;6275657;22;20007;-92
2023/10/20 15:05:25;;;;;;;0.30;0.30;;;;;;;;;;6250296;22;20014;-93
2023/10/20 15:07:51;;;;;;;0.30;0.30;;;;;;;;;;6274743;22;20024;-94
2023/10/20 15:15:36;;;;;;;0.40;0.40;;;;;;;;;;6287856;22;20027;-94
2023/10/20 15:18:05;;;;;;;0.40;0.40;;;;;;;;;;6280088;22;20043;-92
2023/10/20 15:20:32;;;;;;;0.50;0.50;;;;;;;;;;6281557;22;20019;-94
2023/10/20 15:22:58;;;;;;;0.40;0.40;;;;;;;;;;6281378;22;20019;-91
2023/10/20 15:25:24;;;;;;;0.40;0.40;;;;;;;;;;6281348;22;20034;-93
2023/10/20 15:27:50;;;;;;;0.35;0.35;;;;;;;;;;6280523;22;20011;-93
2023/10/20 15:32:55;;;;;;;0.50;0.50;;;;;;;;;;6329542;22;20008;-94
2023/10/20 15:35:21;;;;;;;0.35;0.35;;;;;;;;;;6281430;22;20022;-93
2023/10/20 15:40:24;;;;;;;0.30;0.30;;;;;;;;;;6263920;22;20220;-93
2023/10/20 15:45:28;;;;;;;0.30;0.30;;;;;;;;;;6298139;22;20007;-92
2023/10/20 15:47:54;;;;;;;0.40;0.40;;;;;;;;;;6249113;22;20027;-93
2023/10/20 15:50:22;;;;;;;0.40;0.40;;;;;;;;;;6252213;22;20048;-93
2023/10/20 15:52:48;;;;;;;0.40;0.40;;;;;;;;;;6226218;22;20051;-92
2023/10/20 15:55:15;;;;;;;0.50;0.50;;;;;;;;;;6251570;22;20003;-91
2023/10/20 15:57:41;;;;;;;0.40;0.40;;;;;;;;;;6250159;22;20016;-90
2023/10/20 16:00:08;;;;;;;0.50;0.50;;;;;;;;;;6251197;22;20100;-91
2023/10/20 16:05:10;;;;;;;0.47;0.47;;;;;;;;;;6246788;22;20011;-92
2023/10/20 16:07:36;;;;;;;0.40;0.40;;;;;;;;;;6261231;22;20031;-94
2023/10/20 16:10:07;;;;;;;0.30;0.30;;;;;;;;;;6276451;22;20067;-92
2023/10/20 16:28:15;;;;;;;0.43;0.43;;;;;;;;;;6301680;22;20065;-93
2023/10/20 16:30:41;;;;;;;0.45;0.45;;;;;;;;;;6279612;22;20033;-94
2023/10/20 16:33:07;;;;;;;0.30;0.30;;;;;;;;;;6251993;22;20030;-90
2023/10/20 16:35:33;;;;;;;0.40;0.40;;;;;;;;;;6284579;22;20035;-94
2023/10/20 16:38:00;;;;;;;0.40;0.40;;;;;;;;;;6293101;22;20020;-92
2023/10/20 16:43:04;;;;;;;0.30;0.30;;;;;;;;;;6264581;22;20023;-94
2023/10/20 16:53:18;;;;;;;0.40;0.40;;;;;;;;;;6272275;22;20026;-95
2023/10/20 16:58:20;;;;;;;0.40;0.40;;;;;;;;;;6330097;22;20031;-95
2023/10/20 17:00:47;;;;;;;0.40;0.40;;;;;;;;;;6269902;22;20022;-94
2023/10/20 17:13:48;;;;;;;0.40;0.40;;;;;;;;;;6322265;22;19922;-92
2023/10/20 17:18:50;;;;;;;0.30;0.30;;;;;;;;;;6301319;22;20030;-92
2023/10/20 17:26:28;;;;;;;0.40;0.40;;;;;;;;;;6257005;22;20019;-94
2023/10/20 17:31:30;;;;;;;0.40;0.40;;;;;;;;;;6288057;22;20003;-91
2023/10/20 17:36:32;;;;;;;0.40;0.40;;;;;;;;;;6277956;22;20024;-91
2023/10/20 17:41:34;;;;;;;0.40;0.40;;;;;;;;;;6309016;22;20069;-94
2023/10/20 17:44:00;;;;;;;0.40;0.40;;;;;;;;;;6329678;22;20533;-92
2023/10/20 17:46:27;;;;;;;0.40;0.40;;;;;;;;;;6265528;22;20062;-95
2023/10/20 17:48:54;;;;;;;0.30;0.30;;;;;;;;;;6303397;22;20023;-91
2023/10/20 17:53:56;;;;;;;0.40;0.40;;;;;;;;;;6273537;22;20004;-92
2023/10/20 18:04:09;;;;;;;0.40;0.40;;;;;;;;;;6276697;22;20010;-90
2023/10/20 18:27:41;;;;;;;0.40;0.40;;;;;;;;;;6212585;23;20029;-93
2023/10/20 18:30:09;;;;;;;0.40;0.40;;;;;;;;;;6159670;23;20005;-91
2023/10/20 18:32:35;;;;;;;0.30;0.30;;;;;;;;;;6159080;23;20052;-94
2023/10/20 18:35:08;;;;;;;0.40;0.40;;;;;;;;;;6262874;22;20030;-94
2023/10/20 18:37:53;;;;;;;0.28;0.28;;;;;;;;;;6320415;22;20087;-94
2023/10/20 18:42:55;;;;;;;0.40;0.40;;;;;;;;;;6311336;22;20024;-95
2023/10/20 18:47:57;;;;;;;0.40;0.40;;;;;;;;;;6270937;22;20024;-91
2023/10/20 18:50:24;;;;;;;0.40;0.40;;;;;;;;;;6219967;23;20023;-92
2023/10/20 18:52:53;;;;;;;0.35;0.35;;;;;;;;;;6219466;23;20008;-93
2023/10/20 18:55:20;;;;;;;0.32;0.32;;;;;;;;;;6220490;23;20006;-92
2023/10/20 19:08:07;;;;;;;0.30;0.30;;;;;;;;;;6330838;22;20023;-92
2023/10/20 19:13:09;;;;;;;0.35;0.35;;;;;;;;;;6282207;22;20045;-90
2023/10/20 19:15:38;;;;;;;0.40;0.40;;;;;;;;;;6279568;22;20031;-93
2023/10/20 19:18:04;;;;;;;0.30;0.30;;;;;;;;;;6279952;22;20019;-93
2023/10/20 19:20:30;;;;;;;0.30;0.30;;;;;;;;;;6280276;22;20071;-91
2023/10/20 19:22:56;;;;;;;0.35;0.35;;;;;;;;;;6279712;22;20019;-95
2023/10/20 19:27:58;;;;;;;0.40;0.40;;;;;;;;;;6279407;22;20065;-94
2023/10/20 19:30:24;;;;;;;0.30;0.30;;;;;;;;;;6278778;22;20015;-94
2023/10/20 19:32:51;;;;;;;0.30;0.30;;;;;;;;;;6279357;22;20100;-92
2023/10/20 19:37:53;;;;;;;0.40;0.40;;;;;;;;;;6329443;22;20007;-95
2023/10/20 19:40:20;;;;;;;0.30;0.30;;;;;;;;;;6281419;22;20076;-93
2023/10/20 19:42:46;;;;;;;0.40;0.40;;;;;;;;;;6280930;22;20032;-95
2023/10/20 19:45:15;;;;;;;0.40;0.40;;;;;;;;;;6278481;22;20011;-90
2023/10/20 20:00:40;;;;;;;0.40;0.40;;;;;;;;;;6289039;22;20021;-94
2023/10/20 20:16:11;;;;;;;0.30;0.30;;;;;;;;;;6289226;22;19926;-94
2023/10/20 20:26:22;;;;;;;0.30;0.30;;;;;;;;;;6288899;22;20011;-94
2023/10/20 20:28:49;;;;;;;0.40;0.40;;;;;;;;;;6258975;22;20019;-93
2023/10/20 20:31:33;;;;;;;0.30;0.30;;;;;;;;;;6298212;22;20069;-89
2023/10/20 20:33:59;;;;;;;0.20;0.20;;;;;;;;;;6248802;22;20035;-90
2023/10/20 20:41:43;;;;;;;0.40;0.40;;;;;;;;;;6255069;22;20035;-91
2023/10/20 20:44:09;;;;;;;0.30;0.30;;;;;;;;;;6277937;22;20019;-94
2023/10/20 20:46:35;;;;;;;0.30;0.30;;;;;;;;;;6270944;22;20016;-93
2023/10/20 20:51:37;;;;;;;0.20;0.20;;;;;;;;;;6280389;22;20028;-90
2023/10/20 20:54:03;;;;;;;0.30;0.30;;;;;;;;;;6301945;22;20019;-89
2023/10/20 20:56:34;;;;;;;0.40;0.40;;;;;;;;;;6329986;22;20034;-93
2023/10/20 20:59:02;;;;;;;0.30;0.30;;;;;;;;;;6254289;22;20019;-89
2023/10/20 21:04:07;;;;;;;0.40;0.40;;;;;;;;;;6298611;22;20019;-91
2023/10/20 21:09:10;;;;;;;0.30;0.30;;;;;;;;;;6310416;22;20079;-92
2023/10/20 21:11:38;;;;;;;0.30;0.30;;;;;;;;;;6278760;22;20046;-91
2023/10/20 21:16:43;;;;;;;0.30;0.30;;;;;;;;;;6328211;22;20021;-93
2023/10/20 21:19:09;;;;;;;0.30;0.30;;;;;;;;;;6278119;22;20023;-93
2023/10/20 21:24:11;;;;;;;0.30;0.30;;;;;;;;;;6292936;22;20019;-85
2023/10/20 21:26:39;;;;;;;0.40;0.40;;;;;;;;;;6274983;22;20098;-85
2023/10/20 21:29:10;;;;;;;0.20;0.20;;;;;;;;;;6276644;22;20019;-86
2023/10/20 21:31:43;;;;;;;0.40;0.40;;;;;;;;;;6305400;22;20018;-84
2023/10/20 21:34:26;;;;;;;0.40;0.40;;;;;;;;;;6267737;22;20016;-85
2023/10/20 21:36:59;;;;;;;;;;;;;;;;;;6280502;22;20015;-85
2023/10/20 21:39:28;;;;;;;0.20;0.20;;;;;;;;;;6303885;22;19902;-85
2023/10/20 21:41:59;;;;;;;0.30;0.30;;;;;;;;;;6330870;22;20022;-86
2023/10/20 21:44:31;;;;;;;0.40;0.40;;;;;;;;;;6278885;22;20019;-86
2023/10/20 21:46:58;;;;;;;0.30;0.30;;;;;;;;;;6268214;22;20051;-85
2023/10/20 21:49:23;;;;;;;0.30;0.30;;;;;;;;;;6263553;22;20038;-87
2023/10/20 21:51:50;;;;;;;0.20;0.20;;;;;;;;;;6269955;22;20015;-85
2023/10/20 21:54:16;;;;;;;0.30;0.30;;;;;;;;;;6264581;22;20090;-84
2023/10/20 21:56:54;;;;;;;0.30;0.30;;;;;;;;;;6267919;22;20022;-86
2023/10/20 21:59:20;;;;;;;0.30;0.30;;;;;;;;;;6289015;22;20023;-84
2023/10/20 22:01:46;;;;;;;0.40;0.40;;;;;;;;;;6289692;22;20019;-86
2023/10/20 22:04:12;;;;;;;0.30;0.30;;;;;;;;;;6276964;22;20095;-87
2023/10/20 22:06:47;;;;;;;0.30;0.30;;;;;;;;;;6248044;22;20019;-85
2023/10/20 22:09:43;;;;;;;0.20;0.20;;;;;;;;;;6313164;22;20022;-85
2023/10/20 22:12:21;;;;;;;0.30;0.30;;;;;;;;;;6283509;22;20006;-87
2023/10/20 22:14:47;;;;;;;0.60;0.60;;;;;;;;;;6271938;22;20015;-86
2023/10/20 22:17:13;;;;;;;0.43;0.43;;;;;;;;;;6288732;22;20093;-87
2023/10/20 22:19:39;;;;;;;0.30;0.30;;;;;;;;;;6292111;22;20019;-85
2023/10/20 22:22:05;;;;;;;0.30;0.30;;;;;;;;;;6263253;22;20034;-85
2023/10/20 22:24:31;;;;;;;0.30;0.30;;;;;;;;;;6261172;22;20406;-85
2023/10/20 22:26:57;;;;;;;0.30;0.30;;;;;;;;;;6262352;22;20019;-84
2023/10/20 22:29:23;;;;;;;0.30;0.30;;;;;;;;;;6260897;22;20030;-86